Карточка аэропорта URSS

Внимание!
Информация на этой странице в стадии наполнения.
Если вы не увидели какой-то информации, или заметили неточность - пожалуйста сообщите нам!
Спасибо!
Команда RU-STAFF
Название аэропортаСочи
Название аэропорта (англ.)Sochi
Превышение89 ft. (27.1 m.)
Координаты43°26.634', 39°56.55'
Высота перехода13000 ft
Эшелон переходаQNH>=977hPa: FL150; QNH<977hPa: FL160
Коды ответчика1060-1077
Зона ОрВДРостов-на-Дону РПИ (URRV)
Данные METARURSS 140730Z 27003MPS 9999 SCT019 OVC050 15/11 Q1020 R06/010070 R02/////// NOSIG RMK R02/27003MPS MT OBSC QFE764
Проноз погоды (TAF)URSS 140455Z 1406/1506 23003G08MPS 6000 BKN010 BKN020 TEMPO 1406/1408 VRB01MPS 2100 -DZ BR BKN006 BKN016 FM140800 28006G11MPS 9999 BKN020 TEMPO 1408/1416 2500 BR BKN006 BKN016 FM141600 05003G08MPS 6000 BKN010 BKN020 TEMPO 1416/1506 VRB01MPS 2100 -DZ BR BKN006 BKN016
NOTAMshow/hide NOTAM
AWOS   TABLE

Информация о ВПП

ВПП Длина ВПП (м.) Покрытие Курс ВПП Частота ILS
022500Цементобетон22110.5
202500Цементобетон202 
062890Цементобетон58111.1
242890Цементобетон238 

Диспетчерские позиции

Позывной Наименование органа УВД Частота
URSSFM1119.000
URSS_APPСочи-Подход124.600
URSS_DELСочи-Деливери132.700
URSS_GNDСочи-Руление119.000
URSS_R_APPСочи-Круг119.700
URSS_TWRСочи-Старт121.200



Спутниковое изображение